sensor_id;sensor_type;location;lat;lon;timestamp;temperature;humidity
14682;DHT22;7429;52.498;13.480;2023-05-29T00:01:29;15.20;99.90
14682;DHT22;7429;52.498;13.480;2023-05-29T00:05:46;15.20;99.90
14682;DHT22;7429;52.498;13.480;2023-05-29T00:08:51;15.00;99.90
14682;DHT22;7429;52.498;13.480;2023-05-29T00:11:55;14.90;99.90
14682;DHT22;7429;52.498;13.480;2023-05-29T00:15:12;14.80;99.90
14682;DHT22;7429;52.498;13.480;2023-05-29T00:18:20;14.80;99.90
14682;DHT22;7429;52.498;13.480;2023-05-29T00:21:25;14.80;99.90
14682;DHT22;7429;52.498;13.480;2023-05-29T00:24:29;14.80;99.90
14682;DHT22;7429;52.498;13.480;2023-05-29T00:27:32;14.70;99.90
14682;DHT22;7429;52.498;13.480;2023-05-29T00:30:48;14.60;99.90
14682;DHT22;7429;52.498;13.480;2023-05-29T00:33:51;14.50;99.90
14682;DHT22;7429;52.498;13.480;2023-05-29T00:36:56;14.40;99.90
14682;DHT22;7429;52.498;13.480;2023-05-29T00:39:59;14.30;99.90
14682;DHT22;7429;52.498;13.480;2023-05-29T00:43:03;14.20;99.90
14682;DHT22;7429;52.498;13.480;2023-05-29T00:46:06;14.20;99.90
14682;DHT22;7429;52.498;13.480;2023-05-29T00:49:10;14.10;99.90
14682;DHT22;7429;52.498;13.480;2023-05-29T00:52:15;14.00;99.90
14682;DHT22;7429;52.498;13.480;2023-05-29T00:55:18;13.90;99.90
14682;DHT22;7429;52.498;13.480;2023-05-29T00:58:22;13.80;99.90
14682;DHT22;7429;52.498;13.480;2023-05-29T01:01:26;13.80;99.90
14682;DHT22;7429;52.498;13.480;2023-05-29T01:04:31;13.80;99.90
14682;DHT22;7429;52.498;13.480;2023-05-29T01:07:36;13.80;99.90
14682;DHT22;7429;52.498;13.480;2023-05-29T01:10:40;13.70;99.90
14682;DHT22;7429;52.498;13.480;2023-05-29T01:13:46;13.60;99.90
14682;DHT22;7429;52.498;13.480;2023-05-29T01:16:58;13.60;99.90
14682;DHT22;7429;52.498;13.480;2023-05-29T01:20:12;13.50;99.90
14682;DHT22;7429;52.498;13.480;2023-05-29T01:23:35;13.60;99.90
14682;DHT22;7429;52.498;13.480;2023-05-29T01:26:48;13.60;99.90
14682;DHT22;7429;52.498;13.480;2023-05-29T01:29:56;13.60;99.90
14682;DHT22;7429;52.498;13.480;2023-05-29T01:33:04;13.60;99.90
14682;DHT22;7429;52.498;13.480;2023-05-29T01:36:08;13.60;99.90
14682;DHT22;7429;52.498;13.480;2023-05-29T01:39:13;13.60;99.90
14682;DHT22;7429;52.498;13.480;2023-05-29T01:42:17;13.60;99.90
14682;DHT22;7429;52.498;13.480;2023-05-29T01:45:21;13.60;99.90
14682;DHT22;7429;52.498;13.480;2023-05-29T01:48:24;13.50;99.90
14682;DHT22;7429;52.498;13.480;2023-05-29T01:51:30;13.40;99.90
14682;DHT22;7429;52.498;13.480;2023-05-29T01:54:34;13.40;99.90
14682;DHT22;7429;52.498;13.480;2023-05-29T01:57:40;13.40;99.90
14682;DHT22;7429;52.498;13.480;2023-05-29T02:00:44;13.30;99.90
14682;DHT22;7429;52.498;13.480;2023-05-29T02:03:47;13.30;99.90
14682;DHT22;7429;52.498;13.480;2023-05-29T02:06:51;13.40;99.90
14682;DHT22;7429;52.498;13.480;2023-05-29T02:09:55;13.40;99.90
14682;DHT22;7429;52.498;13.480;2023-05-29T02:12:59;13.30;99.90
14682;DHT22;7429;52.498;13.480;2023-05-29T02:16:03;13.20;99.90
14682;DHT22;7429;52.498;13.480;2023-05-29T02:19:08;13.20;99.90
14682;DHT22;7429;52.498;13.480;2023-05-29T02:22:12;13.10;99.90
14682;DHT22;7429;52.498;13.480;2023-05-29T02:25:15;13.10;99.90
14682;DHT22;7429;52.498;13.480;2023-05-29T02:28:20;13.10;99.90
14682;DHT22;7429;52.498;13.480;2023-05-29T02:31:23;13.10;99.90
14682;DHT22;7429;52.498;13.480;2023-05-29T02:34:27;13.00;99.90
14682;DHT22;7429;52.498;13.480;2023-05-29T02:37:30;13.10;99.90
14682;DHT22;7429;52.498;13.480;2023-05-29T02:40:34;13.00;99.90
14682;DHT22;7429;52.498;13.480;2023-05-29T02:43:38;13.00;99.90
14682;DHT22;7429;52.498;13.480;2023-05-29T02:46:41;12.90;99.90
14682;DHT22;7429;52.498;13.480;2023-05-29T02:49:45;12.90;99.90
14682;DHT22;7429;52.498;13.480;2023-05-29T02:52:48;12.90;99.90
14682;DHT22;7429;52.498;13.480;2023-05-29T02:55:52;12.90;99.90
14682;DHT22;7429;52.498;13.480;2023-05-29T02:58:58;12.90;99.90
14682;DHT22;7429;52.498;13.480;2023-05-29T03:02:07;12.90;99.90
14682;DHT22;7429;52.498;13.480;2023-05-29T03:05:10;12.90;99.90
14682;DHT22;7429;52.498;13.480;2023-05-29T03:08:14;12.90;99.90
14682;DHT22;7429;52.498;13.480;2023-05-29T03:11:17;12.80;99.90
14682;DHT22;7429;52.498;13.480;2023-05-29T03:14:24;12.80;99.90
14682;DHT22;7429;52.498;13.480;2023-05-29T03:17:29;12.80;99.90
14682;DHT22;7429;52.498;13.480;2023-05-29T03:20:32;12.80;99.90
14682;DHT22;7429;52.498;13.480;2023-05-29T03:23:36;12.90;99.90
14682;DHT22;7429;52.498;13.480;2023-05-29T03:26:40;12.90;99.90
14682;DHT22;7429;52.498;13.480;2023-05-29T03:29:45;12.80;99.90
14682;DHT22;7429;52.498;13.480;2023-05-29T03:32:48;12.80;99.90
14682;DHT22;7429;52.498;13.480;2023-05-29T03:35:55;12.80;99.90
14682;DHT22;7429;52.498;13.480;2023-05-29T03:38:58;12.80;99.90
14682;DHT22;7429;52.498;13.480;2023-05-29T03:42:02;12.80;99.90
14682;DHT22;7429;52.498;13.480;2023-05-29T03:45:08;12.80;99.90
14682;DHT22;7429;52.498;13.480;2023-05-29T03:48:14;12.80;99.90
14682;DHT22;7429;52.498;13.480;2023-05-29T03:51:20;12.80;99.90
14682;DHT22;7429;52.498;13.480;2023-05-29T03:54:24;12.80;99.90
14682;DHT22;7429;52.498;13.480;2023-05-29T03:57:28;12.80;99.90
14682;DHT22;7429;52.498;13.480;2023-05-29T04:00:33;12.80;99.90
14682;DHT22;7429;52.498;13.480;2023-05-29T04:03:37;12.90;99.90
14682;DHT22;7429;52.498;13.480;2023-05-29T04:06:40;12.90;99.90
14682;DHT22;7429;52.498;13.480;2023-05-29T04:09:44;13.00;99.90
14682;DHT22;7429;52.498;13.480;2023-05-29T04:12:47;13.00;99.90
14682;DHT22;7429;52.498;13.480;2023-05-29T04:15:52;13.10;99.90
14682;DHT22;7429;52.498;13.480;2023-05-29T04:18:56;13.00;99.90
14682;DHT22;7429;52.498;13.480;2023-05-29T04:22:04;13.00;99.90
14682;DHT22;7429;52.498;13.480;2023-05-29T04:25:12;13.10;99.90
14682;DHT22;7429;52.498;13.480;2023-05-29T04:28:20;13.10;99.90
14682;DHT22;7429;52.498;13.480;2023-05-29T04:31:26;13.10;99.90
14682;DHT22;7429;52.498;13.480;2023-05-29T04:34:30;13.30;99.90
14682;DHT22;7429;52.498;13.480;2023-05-29T04:37:34;13.40;99.90
14682;DHT22;7429;52.498;13.480;2023-05-29T04:40:41;13.50;99.90
14682;DHT22;7429;52.498;13.480;2023-05-29T04:43:46;13.60;99.90
14682;DHT22;7429;52.498;13.480;2023-05-29T04:46:53;13.70;99.90
14682;DHT22;7429;52.498;13.480;2023-05-29T04:49:56;13.80;99.90
14682;DHT22;7429;52.498;13.480;2023-05-29T04:53:01;13.90;99.90
14682;DHT22;7429;52.498;13.480;2023-05-29T04:56:05;13.90;99.90
14682;DHT22;7429;52.498;13.480;2023-05-29T04:59:09;14.10;99.90
14682;DHT22;7429;52.498;13.480;2023-05-29T05:02:14;14.20;99.90
14682;DHT22;7429;52.498;13.480;2023-05-29T05:05:17;14.30;99.90
14682;DHT22;7429;52.498;13.480;2023-05-29T05:08:30;14.40;99.90
14682;DHT22;7429;52.498;13.480;2023-05-29T05:11:34;14.40;99.90
14682;DHT22;7429;52.498;13.480;2023-05-29T05:14:39;14.50;99.90
14682;DHT22;7429;52.498;13.480;2023-05-29T05:17:43;14.60;99.90
14682;DHT22;7429;52.498;13.480;2023-05-29T05:20:48;14.70;99.90
14682;DHT22;7429;52.498;13.480;2023-05-29T05:23:52;14.70;99.90
14682;DHT22;7429;52.498;13.480;2023-05-29T05:27:00;14.70;99.90
14682;DHT22;7429;52.498;13.480;2023-05-29T05:30:04;14.70;99.90
14682;DHT22;7429;52.498;13.480;2023-05-29T05:33:10;14.80;99.90
14682;DHT22;7429;52.498;13.480;2023-05-29T05:36:14;14.80;99.90
14682;DHT22;7429;52.498;13.480;2023-05-29T05:39:29;14.90;99.90
14682;DHT22;7429;52.498;13.480;2023-05-29T05:42:32;15.00;99.90
14682;DHT22;7429;52.498;13.480;2023-05-29T05:45:40;15.10;99.90
14682;DHT22;7429;52.498;13.480;2023-05-29T05:48:46;15.20;99.90
14682;DHT22;7429;52.498;13.480;2023-05-29T05:51:50;15.50;99.90
14682;DHT22;7429;52.498;13.480;2023-05-29T05:54:53;15.80;99.90
14682;DHT22;7429;52.498;13.480;2023-05-29T05:57:57;16.00;99.90
14682;DHT22;7429;52.498;13.480;2023-05-29T06:01:05;16.10;99.90
14682;DHT22;7429;52.498;13.480;2023-05-29T06:04:11;16.20;99.90
14682;DHT22;7429;52.498;13.480;2023-05-29T06:07:14;16.30;99.90
14682;DHT22;7429;52.498;13.480;2023-05-29T06:10:17;16.40;99.90
14682;DHT22;7429;52.498;13.480;2023-05-29T06:13:22;16.40;99.90
14682;DHT22;7429;52.498;13.480;2023-05-29T06:16:32;16.50;99.90
14682;DHT22;7429;52.498;13.480;2023-05-29T06:19:38;16.70;99.90
14682;DHT22;7429;52.498;13.480;2023-05-29T06:22:41;16.90;99.90
14682;DHT22;7429;52.498;13.480;2023-05-29T06:25:46;17.10;99.90
14682;DHT22;7429;52.498;13.480;2023-05-29T06:28:50;17.20;99.90
14682;DHT22;7429;52.498;13.480;2023-05-29T06:31:53;17.40;99.90
14682;DHT22;7429;52.498;13.480;2023-05-29T06:34:59;17.40;99.90
14682;DHT22;7429;52.498;13.480;2023-05-29T06:38:04;17.60;99.90
14682;DHT22;7429;52.498;13.480;2023-05-29T06:41:25;17.80;99.90
14682;DHT22;7429;52.498;13.480;2023-05-29T06:45:10;17.90;99.90
14682;DHT22;7429;52.498;13.480;2023-05-29T06:48:18;17.90;99.90
14682;DHT22;7429;52.498;13.480;2023-05-29T06:52:23;17.90;99.90
14682;DHT22;7429;52.498;13.480;2023-05-29T06:56:26;17.90;99.90
14682;DHT22;7429;52.498;13.480;2023-05-29T06:59:32;18.10;99.90
14682;DHT22;7429;52.498;13.480;2023-05-29T07:02:53;18.30;99.90
14682;DHT22;7429;52.498;13.480;2023-05-29T07:06:06;18.40;99.90
14682;DHT22;7429;52.498;13.480;2023-05-29T07:09:38;18.50;99.90
14682;DHT22;7429;52.498;13.480;2023-05-29T07:12:43;18.60;99.90
14682;DHT22;7429;52.498;13.480;2023-05-29T07:15:50;18.70;99.90
14682;DHT22;7429;52.498;13.480;2023-05-29T07:19:03;18.60;99.90
14682;DHT22;7429;52.498;13.480;2023-05-29T07:22:10;18.70;99.90
14682;DHT22;7429;52.498;13.480;2023-05-29T07:25:20;18.80;99.90
14682;DHT22;7429;52.498;13.480;2023-05-29T07:28:37;19.10;99.90
14682;DHT22;7429;52.498;13.480;2023-05-29T07:31:43;19.10;99.90
14682;DHT22;7429;52.498;13.480;2023-05-29T07:34:47;19.20;99.90
14682;DHT22;7429;52.498;13.480;2023-05-29T07:37:51;19.20;99.90
14682;DHT22;7429;52.498;13.480;2023-05-29T07:41:00;19.20;99.90
14682;DHT22;7429;52.498;13.480;2023-05-29T07:44:09;19.40;99.90
14682;DHT22;7429;52.498;13.480;2023-05-29T07:47:17;19.50;99.90
14682;DHT22;7429;52.498;13.480;2023-05-29T07:50:22;19.70;99.90
14682;DHT22;7429;52.498;13.480;2023-05-29T07:53:26;19.80;99.90
14682;DHT22;7429;52.498;13.480;2023-05-29T07:56:32;19.90;99.90
14682;DHT22;7429;52.498;13.480;2023-05-29T07:59:41;19.90;99.90
14682;DHT22;7429;52.498;13.480;2023-05-29T08:02:49;19.80;99.90
14682;DHT22;7429;52.498;13.480;2023-05-29T08:06:06;19.90;99.90
14682;DHT22;7429;52.498;13.480;2023-05-29T08:09:10;19.90;99.90
14682;DHT22;7429;52.498;13.480;2023-05-29T08:12:14;20.10;99.90
14682;DHT22;7429;52.498;13.480;2023-05-29T08:15:18;20.40;99.90
14682;DHT22;7429;52.498;13.480;2023-05-29T08:18:25;20.40;99.90
14682;DHT22;7429;52.498;13.480;2023-05-29T08:21:28;20.40;99.90
14682;DHT22;7429;52.498;13.480;2023-05-29T08:24:32;20.70;99.90
14682;DHT22;7429;52.498;13.480;2023-05-29T08:27:36;20.80;99.90
14682;DHT22;7429;52.498;13.480;2023-05-29T08:30:40;20.70;99.90
14682;DHT22;7429;52.498;13.480;2023-05-29T08:33:43;20.50;99.90
14682;DHT22;7429;52.498;13.480;2023-05-29T08:36:46;20.50;99.90
14682;DHT22;7429;52.498;13.480;2023-05-29T08:39:50;20.60;99.90
14682;DHT22;7429;52.498;13.480;2023-05-29T08:42:57;20.80;99.90
14682;DHT22;7429;52.498;13.480;2023-05-29T08:46:03;21.00;99.90
14682;DHT22;7429;52.498;13.480;2023-05-29T08:49:08;21.20;99.90
14682;DHT22;7429;52.498;13.480;2023-05-29T08:52:14;21.30;99.90
14682;DHT22;7429;52.498;13.480;2023-05-29T08:55:23;21.50;99.90
14682;DHT22;7429;52.498;13.480;2023-05-29T08:58:27;21.40;99.90
14682;DHT22;7429;52.498;13.480;2023-05-29T09:01:31;21.50;99.90
14682;DHT22;7429;52.498;13.480;2023-05-29T09:04:34;21.40;99.90
14682;DHT22;7429;52.498;13.480;2023-05-29T09:07:38;21.50;99.90
14682;DHT22;7429;52.498;13.480;2023-05-29T09:10:43;21.60;99.90
14682;DHT22;7429;52.498;13.480;2023-05-29T09:13:49;21.90;99.90
14682;DHT22;7429;52.498;13.480;2023-05-29T09:16:52;22.00;99.90
14682;DHT22;7429;52.498;13.480;2023-05-29T09:19:55;22.10;99.90
14682;DHT22;7429;52.498;13.480;2023-05-29T09:22:59;22.40;99.90
14682;DHT22;7429;52.498;13.480;2023-05-29T09:26:04;22.60;99.90
14682;DHT22;7429;52.498;13.480;2023-05-29T09:29:08;22.50;99.90
14682;DHT22;7429;52.498;13.480;2023-05-29T09:32:15;22.10;99.90
14682;DHT22;7429;52.498;13.480;2023-05-29T09:35:19;22.20;99.90
14682;DHT22;7429;52.498;13.480;2023-05-29T09:38:22;22.30;99.90
14682;DHT22;7429;52.498;13.480;2023-05-29T09:41:46;22.50;99.90
14682;DHT22;7429;52.498;13.480;2023-05-29T09:44:52;22.30;99.90
14682;DHT22;7429;52.498;13.480;2023-05-29T09:47:55;21.90;99.90
14682;DHT22;7429;52.498;13.480;2023-05-29T09:51:02;22.00;99.90
14682;DHT22;7429;52.498;13.480;2023-05-29T09:54:15;22.00;99.90
14682;DHT22;7429;52.498;13.480;2023-05-29T09:57:19;22.20;99.90
14682;DHT22;7429;52.498;13.480;2023-05-29T10:00:29;22.40;99.90
14682;DHT22;7429;52.498;13.480;2023-05-29T10:03:37;22.70;99.90
14682;DHT22;7429;52.498;13.480;2023-05-29T10:06:45;23.00;99.90
14682;DHT22;7429;52.498;13.480;2023-05-29T10:09:59;22.80;99.90
14682;DHT22;7429;52.498;13.480;2023-05-29T10:13:06;22.40;99.90
14682;DHT22;7429;52.498;13.480;2023-05-29T10:16:31;22.50;99.90
14682;DHT22;7429;52.498;13.480;2023-05-29T10:19:38;22.80;99.90
14682;DHT22;7429;52.498;13.480;2023-05-29T10:22:45;22.70;99.90
14682;DHT22;7429;52.498;13.480;2023-05-29T10:25:52;22.30;99.90
14682;DHT22;7429;52.498;13.480;2023-05-29T10:29:03;22.10;99.90
14682;DHT22;7429;52.498;13.480;2023-05-29T10:32:20;21.90;99.90
14682;DHT22;7429;52.498;13.480;2023-05-29T10:35:29;21.60;99.90
14682;DHT22;7429;52.498;13.480;2023-05-29T10:38:34;21.60;99.90
14682;DHT22;7429;52.498;13.480;2023-05-29T10:41:37;21.80;99.90
14682;DHT22;7429;52.498;13.480;2023-05-29T10:44:42;22.00;99.90
14682;DHT22;7429;52.498;13.480;2023-05-29T10:47:47;22.00;99.90
14682;DHT22;7429;52.498;13.480;2023-05-29T10:50:51;22.10;99.90
14682;DHT22;7429;52.498;13.480;2023-05-29T10:53:54;22.70;99.90
14682;DHT22;7429;52.498;13.480;2023-05-29T10:57:00;22.80;99.90
14682;DHT22;7429;52.498;13.480;2023-05-29T11:00:06;22.40;99.90
14682;DHT22;7429;52.498;13.480;2023-05-29T11:03:19;22.30;99.90
14682;DHT22;7429;52.498;13.480;2023-05-29T11:06:23;22.20;99.90
14682;DHT22;7429;52.498;13.480;2023-05-29T11:09:29;22.20;99.90
14682;DHT22;7429;52.498;13.480;2023-05-29T11:12:33;22.60;99.90
14682;DHT22;7429;52.498;13.480;2023-05-29T11:15:38;23.10;99.90
14682;DHT22;7429;52.498;13.480;2023-05-29T11:18:46;23.00;99.90
14682;DHT22;7429;52.498;13.480;2023-05-29T11:21:59;23.20;99.90
14682;DHT22;7429;52.498;13.480;2023-05-29T11:25:09;23.50;99.90
14682;DHT22;7429;52.498;13.480;2023-05-29T11:28:12;23.20;99.90
14682;DHT22;7429;52.498;13.480;2023-05-29T11:31:18;22.60;99.90
14682;DHT22;7429;52.498;13.480;2023-05-29T11:34:28;22.40;99.90
14682;DHT22;7429;52.498;13.480;2023-05-29T11:37:31;22.30;99.90
14682;DHT22;7429;52.498;13.480;2023-05-29T11:40:37;22.90;99.90
14682;DHT22;7429;52.498;13.480;2023-05-29T11:43:40;23.10;99.90
14682;DHT22;7429;52.498;13.480;2023-05-29T11:46:44;23.00;99.90
14682;DHT22;7429;52.498;13.480;2023-05-29T11:49:51;22.80;99.90
14682;DHT22;7429;52.498;13.480;2023-05-29T11:52:59;23.10;99.90
14682;DHT22;7429;52.498;13.480;2023-05-29T11:56:10;23.90;99.90
14682;DHT22;7429;52.498;13.480;2023-05-29T11:59:14;24.20;99.90
14682;DHT22;7429;52.498;13.480;2023-05-29T12:02:17;24.30;99.90
14682;DHT22;7429;52.498;13.480;2023-05-29T12:05:22;24.50;99.90
14682;DHT22;7429;52.498;13.480;2023-05-29T12:08:26;24.70;99.90
14682;DHT22;7429;52.498;13.480;2023-05-29T12:11:29;25.10;99.90
14682;DHT22;7429;52.498;13.480;2023-05-29T12:14:33;25.60;99.90
14682;DHT22;7429;52.498;13.480;2023-05-29T12:17:38;25.90;99.90
14682;DHT22;7429;52.498;13.480;2023-05-29T12:20:44;25.50;99.90
14682;DHT22;7429;52.498;13.480;2023-05-29T12:23:48;25.50;99.90
14682;DHT22;7429;52.498;13.480;2023-05-29T12:26:57;25.40;99.90
14682;DHT22;7429;52.498;13.480;2023-05-29T12:30:03;25.40;99.90
14682;DHT22;7429;52.498;13.480;2023-05-29T12:33:24;25.40;99.90
14682;DHT22;7429;52.498;13.480;2023-05-29T12:36:31;24.60;99.90
14682;DHT22;7429;52.498;13.480;2023-05-29T12:39:35;24.00;99.90
14682;DHT22;7429;52.498;13.480;2023-05-29T12:42:38;23.40;99.90
14682;DHT22;7429;52.498;13.480;2023-05-29T12:45:41;23.00;99.90
14682;DHT22;7429;52.498;13.480;2023-05-29T12:48:45;23.00;99.90
14682;DHT22;7429;52.498;13.480;2023-05-29T12:51:50;23.20;99.90
14682;DHT22;7429;52.498;13.480;2023-05-29T12:54:54;23.30;99.90
14682;DHT22;7429;52.498;13.480;2023-05-29T12:57:57;23.70;99.90
14682;DHT22;7429;52.498;13.480;2023-05-29T13:01:00;24.00;99.90
14682;DHT22;7429;52.498;13.480;2023-05-29T13:04:04;24.40;99.90
14682;DHT22;7429;52.498;13.480;2023-05-29T13:07:10;24.90;99.90
14682;DHT22;7429;52.498;13.480;2023-05-29T13:10:13;24.90;99.90
14682;DHT22;7429;52.498;13.480;2023-05-29T13:13:16;25.30;99.90
14682;DHT22;7429;52.498;13.480;2023-05-29T13:16:20;25.20;99.90
14682;DHT22;7429;52.498;13.480;2023-05-29T13:19:23;24.70;99.90
14682;DHT22;7429;52.498;13.480;2023-05-29T13:22:28;24.50;99.90
14682;DHT22;7429;52.498;13.480;2023-05-29T13:25:33;24.70;99.90
14682;DHT22;7429;52.498;13.480;2023-05-29T13:28:37;25.00;99.90
14682;DHT22;7429;52.498;13.480;2023-05-29T13:31:40;25.30;99.90
14682;DHT22;7429;52.498;13.480;2023-05-29T13:34:43;25.30;99.90
14682;DHT22;7429;52.498;13.480;2023-05-29T13:37:48;25.30;99.90
14682;DHT22;7429;52.498;13.480;2023-05-29T13:40:51;25.50;99.90
14682;DHT22;7429;52.498;13.480;2023-05-29T13:43:55;25.80;99.90
14682;DHT22;7429;52.498;13.480;2023-05-29T13:46:58;26.20;99.90
14682;DHT22;7429;52.498;13.480;2023-05-29T13:50:02;25.70;99.90
14682;DHT22;7429;52.498;13.480;2023-05-29T13:53:07;25.60;99.90
14682;DHT22;7429;52.498;13.480;2023-05-29T13:56:10;25.90;99.90
14682;DHT22;7429;52.498;13.480;2023-05-29T13:59:14;26.40;99.90
14682;DHT22;7429;52.498;13.480;2023-05-29T14:02:17;26.80;99.90
14682;DHT22;7429;52.498;13.480;2023-05-29T14:05:20;26.80;99.90
14682;DHT22;7429;52.498;13.480;2023-05-29T14:08:25;26.30;99.90
14682;DHT22;7429;52.498;13.480;2023-05-29T14:11:28;26.20;99.90
14682;DHT22;7429;52.498;13.480;2023-05-29T14:14:32;26.00;99.90
14682;DHT22;7429;52.498;13.480;2023-05-29T14:17:36;25.80;99.90
14682;DHT22;7429;52.498;13.480;2023-05-29T14:20:39;26.20;99.90
14682;DHT22;7429;52.498;13.480;2023-05-29T14:23:44;26.00;99.90
14682;DHT22;7429;52.498;13.480;2023-05-29T14:26:47;25.70;99.90
14682;DHT22;7429;52.498;13.480;2023-05-29T14:29:50;25.50;99.90
14682;DHT22;7429;52.498;13.480;2023-05-29T14:32:54;25.30;99.90
14682;DHT22;7429;52.498;13.480;2023-05-29T14:35:58;25.40;99.90
14682;DHT22;7429;52.498;13.480;2023-05-29T14:39:03;26.00;99.90
14682;DHT22;7429;52.498;13.480;2023-05-29T14:42:07;26.10;99.90
14682;DHT22;7429;52.498;13.480;2023-05-29T14:45:11;26.30;99.90
14682;DHT22;7429;52.498;13.480;2023-05-29T14:48:14;26.60;99.90
14682;DHT22;7429;52.498;13.480;2023-05-29T14:51:20;26.70;99.90
14682;DHT22;7429;52.498;13.480;2023-05-29T14:54:26;27.00;99.90
14682;DHT22;7429;52.498;13.480;2023-05-29T14:57:37;27.20;99.90
14682;DHT22;7429;52.498;13.480;2023-05-29T15:00:48;26.80;99.90
14682;DHT22;7429;52.498;13.480;2023-05-29T15:03:58;26.30;99.90
14682;DHT22;7429;52.498;13.480;2023-05-29T15:07:08;26.10;99.90
14682;DHT22;7429;52.498;13.480;2023-05-29T15:10:12;26.50;99.90
14682;DHT22;7429;52.498;13.480;2023-05-29T15:13:15;26.70;99.90
14682;DHT22;7429;52.498;13.480;2023-05-29T15:16:18;26.10;99.90
14682;DHT22;7429;52.498;13.480;2023-05-29T15:19:21;25.70;99.90
14682;DHT22;7429;52.498;13.480;2023-05-29T15:22:24;25.40;99.90
14682;DHT22;7429;52.498;13.480;2023-05-29T15:25:29;25.50;99.90
14682;DHT22;7429;52.498;13.480;2023-05-29T15:28:32;26.00;99.90
14682;DHT22;7429;52.498;13.480;2023-05-29T15:31:36;26.40;99.90
14682;DHT22;7429;52.498;13.480;2023-05-29T15:34:39;26.50;99.90
14682;DHT22;7429;52.498;13.480;2023-05-29T15:37:43;26.60;99.90
14682;DHT22;7429;52.498;13.480;2023-05-29T15:40:47;26.30;99.90
14682;DHT22;7429;52.498;13.480;2023-05-29T15:43:52;26.20;99.90
14682;DHT22;7429;52.498;13.480;2023-05-29T15:46:55;26.50;99.90
14682;DHT22;7429;52.498;13.480;2023-05-29T15:49:58;26.50;99.90
14682;DHT22;7429;52.498;13.480;2023-05-29T15:53:02;26.10;99.90
14682;DHT22;7429;52.498;13.480;2023-05-29T15:56:06;25.80;99.90
14682;DHT22;7429;52.498;13.480;2023-05-29T15:59:10;25.20;99.90
14682;DHT22;7429;52.498;13.480;2023-05-29T16:02:13;25.10;99.90
14682;DHT22;7429;52.498;13.480;2023-05-29T16:05:17;24.80;99.90
14682;DHT22;7429;52.498;13.480;2023-05-29T16:08:20;24.90;99.90
14682;DHT22;7429;52.498;13.480;2023-05-29T16:11:24;25.00;99.90
14682;DHT22;7429;52.498;13.480;2023-05-29T16:14:28;24.70;99.90
14682;DHT22;7429;52.498;13.480;2023-05-29T16:17:32;24.40;99.90
14682;DHT22;7429;52.498;13.480;2023-05-29T16:20:35;24.30;99.90
14682;DHT22;7429;52.498;13.480;2023-05-29T16:23:38;24.10;99.90
14682;DHT22;7429;52.498;13.480;2023-05-29T16:26:49;23.60;99.90
14682;DHT22;7429;52.498;13.480;2023-05-29T16:29:52;23.40;99.90
14682;DHT22;7429;52.498;13.480;2023-05-29T16:32:55;23.40;99.90
14682;DHT22;7429;52.498;13.480;2023-05-29T16:35:58;23.30;99.90
14682;DHT22;7429;52.498;13.480;2023-05-29T16:39:04;23.40;99.90
14682;DHT22;7429;52.498;13.480;2023-05-29T16:42:08;23.40;99.90
14682;DHT22;7429;52.498;13.480;2023-05-29T16:45:13;23.20;99.90
14682;DHT22;7429;52.498;13.480;2023-05-29T16:48:17;23.00;99.90
14682;DHT22;7429;52.498;13.480;2023-05-29T16:51:22;22.90;99.90
14682;DHT22;7429;52.498;13.480;2023-05-29T16:54:25;23.00;99.90
14682;DHT22;7429;52.498;13.480;2023-05-29T16:57:31;22.90;99.90
14682;DHT22;7429;52.498;13.480;2023-05-29T17:00:35;22.80;99.90
14682;DHT22;7429;52.498;13.480;2023-05-29T17:03:39;22.80;99.90
14682;DHT22;7429;52.498;13.480;2023-05-29T17:06:43;22.60;99.90
14682;DHT22;7429;52.498;13.480;2023-05-29T17:09:47;22.60;99.90
14682;DHT22;7429;52.498;13.480;2023-05-29T17:12:53;22.50;99.90
14682;DHT22;7429;52.498;13.480;2023-05-29T17:15:59;22.30;99.90
14682;DHT22;7429;52.498;13.480;2023-05-29T17:19:02;22.20;99.90
14682;DHT22;7429;52.498;13.480;2023-05-29T17:22:05;22.00;99.90
14682;DHT22;7429;52.498;13.480;2023-05-29T17:25:09;22.00;99.90
14682;DHT22;7429;52.498;13.480;2023-05-29T17:28:21;21.90;99.90
14682;DHT22;7429;52.498;13.480;2023-05-29T17:31:26;21.80;99.90
14682;DHT22;7429;52.498;13.480;2023-05-29T17:34:32;21.60;99.90
14682;DHT22;7429;52.498;13.480;2023-05-29T17:37:35;21.40;99.90
14682;DHT22;7429;52.498;13.480;2023-05-29T17:40:41;21.40;99.90
14682;DHT22;7429;52.498;13.480;2023-05-29T17:43:50;21.30;99.90
14682;DHT22;7429;52.498;13.480;2023-05-29T17:46:53;21.30;99.90
14682;DHT22;7429;52.498;13.480;2023-05-29T17:49:56;21.30;99.90
14682;DHT22;7429;52.498;13.480;2023-05-29T17:53:01;21.20;99.90
14682;DHT22;7429;52.498;13.480;2023-05-29T17:56:07;21.20;99.90
14682;DHT22;7429;52.498;13.480;2023-05-29T17:59:12;21.00;99.90
14682;DHT22;7429;52.498;13.480;2023-05-29T18:02:15;20.90;99.90
14682;DHT22;7429;52.498;13.480;2023-05-29T18:05:18;20.70;99.90
14682;DHT22;7429;52.498;13.480;2023-05-29T18:08:22;20.60;99.90
14682;DHT22;7429;52.498;13.480;2023-05-29T18:11:26;20.50;99.90
14682;DHT22;7429;52.498;13.480;2023-05-29T18:14:31;20.50;99.90
14682;DHT22;7429;52.498;13.480;2023-05-29T18:17:34;20.40;99.90
14682;DHT22;7429;52.498;13.480;2023-05-29T18:20:37;20.30;99.90
14682;DHT22;7429;52.498;13.480;2023-05-29T18:23:40;20.10;99.90
14682;DHT22;7429;52.498;13.480;2023-05-29T18:26:45;20.00;99.90
14682;DHT22;7429;52.498;13.480;2023-05-29T18:29:50;20.00;99.90
14682;DHT22;7429;52.498;13.480;2023-05-29T18:32:54;19.90;99.90
14682;DHT22;7429;52.498;13.480;2023-05-29T18:36:00;19.80;99.90
14682;DHT22;7429;52.498;13.480;2023-05-29T18:39:04;19.80;99.90
14682;DHT22;7429;52.498;13.480;2023-05-29T18:42:07;19.70;99.90
14682;DHT22;7429;52.498;13.480;2023-05-29T18:45:12;19.50;99.90
14682;DHT22;7429;52.498;13.480;2023-05-29T18:48:15;19.40;99.90
14682;DHT22;7429;52.498;13.480;2023-05-29T18:51:18;19.30;99.90
14682;DHT22;7429;52.498;13.480;2023-05-29T18:54:29;19.10;99.90
14682;DHT22;7429;52.498;13.480;2023-05-29T18:57:38;19.10;99.90
14682;DHT22;7429;52.498;13.480;2023-05-29T19:00:46;19.00;99.90
14682;DHT22;7429;52.498;13.480;2023-05-29T19:03:54;18.90;99.90
14682;DHT22;7429;52.498;13.480;2023-05-29T19:07:03;18.80;99.90
14682;DHT22;7429;52.498;13.480;2023-05-29T19:10:09;18.80;99.90
14682;DHT22;7429;52.498;13.480;2023-05-29T19:13:13;18.70;99.90
14682;DHT22;7429;52.498;13.480;2023-05-29T19:16:19;18.60;99.90
14682;DHT22;7429;52.498;13.480;2023-05-29T19:19:23;18.50;99.90
14682;DHT22;7429;52.498;13.480;2023-05-29T19:22:26;18.50;99.90
14682;DHT22;7429;52.498;13.480;2023-05-29T19:25:29;18.40;99.90
14682;DHT22;7429;52.498;13.480;2023-05-29T19:28:32;18.40;99.90
14682;DHT22;7429;52.498;13.480;2023-05-29T19:31:38;18.30;99.90
14682;DHT22;7429;52.498;13.480;2023-05-29T19:34:41;18.30;99.90